createdAt,value
2019-04-27T00:01:27.464Z,19
2019-04-27T00:06:27.424Z,18
2019-04-27T00:11:33.464Z,19
2019-04-27T00:16:33.994Z,15
2019-04-27T00:21:33.045Z,15
2019-04-27T00:26:33.615Z,18
2019-04-27T00:31:33.912Z,19
2019-04-27T00:36:35.422Z,18
2019-04-27T00:41:34.143Z,19
2019-04-27T00:46:33.224Z,16
2019-04-27T00:51:33.501Z,18
2019-04-27T00:56:34.114Z,14
2019-04-27T01:01:33.508Z,16
2019-04-27T01:06:33.804Z,14
2019-04-27T01:11:33.575Z,16
2019-04-27T01:16:32.932Z,16
2019-04-27T01:21:32.918Z,21
2019-04-27T01:26:32.947Z,13
2019-04-27T01:31:32.920Z,14
2019-04-27T01:36:32.874Z,13
2019-04-27T01:41:32.916Z,14
2019-04-27T01:46:32.866Z,13
2019-04-27T01:51:32.917Z,15
2019-04-27T01:56:32.854Z,15
2019-04-27T02:01:32.998Z,15
2019-04-27T02:06:32.886Z,16
2019-04-27T02:11:32.924Z,11
2019-04-27T02:16:37.079Z,12
2019-04-27T02:21:32.880Z,14
2019-04-27T02:26:32.872Z,15
2019-04-27T02:31:32.900Z,14
2019-04-27T02:36:32.850Z,15
2019-04-27T02:41:32.831Z,14
2019-04-27T02:46:32.914Z,15
2019-04-27T02:51:32.900Z,15
2019-04-27T02:56:32.849Z,15
2019-04-27T03:01:33.868Z,16
2019-04-27T03:06:32.821Z,15
2019-04-27T03:11:34.151Z,15
2019-04-27T03:16:32.810Z,16
2019-04-27T03:21:33.590Z,16
2019-04-27T03:26:33.599Z,17
2019-04-27T03:31:33.569Z,15
2019-04-27T03:36:34.917Z,15
2019-04-27T03:41:33.591Z,14
2019-04-27T03:46:33.520Z,16
2019-04-27T03:51:36.485Z,17
2019-04-27T03:56:35.029Z,16
2019-04-27T04:01:35.054Z,17
2019-04-27T04:06:35.009Z,19
2019-04-27T04:11:36.295Z,20
2019-04-27T04:16:34.988Z,16
2019-04-27T04:26:35.015Z,19
2019-04-27T04:31:36.440Z,17
2019-04-27T04:36:34.973Z,19
2019-04-27T04:41:34.985Z,21
2019-04-27T04:46:34.968Z,17
2019-04-27T04:51:35.001Z,17
2019-04-27T04:56:34.951Z,14
2019-04-27T05:01:34.958Z,25
2019-04-27T05:06:34.970Z,20
2019-04-27T05:11:39.831Z,23
2019-04-27T05:16:39.334Z,18
2019-04-27T05:21:39.132Z,23
2019-04-27T05:26:40.041Z,21
2019-04-27T05:31:39.146Z,21
2019-04-27T05:36:52.781Z,21
2019-04-27T05:41:41.995Z,20
2019-04-27T05:46:39.999Z,19
2019-04-27T05:51:42.205Z,21
2019-04-27T05:56:39.758Z,19
2019-04-27T06:01:39.735Z,19
2019-04-27T06:06:44.505Z,22
2019-04-27T06:11:40.258Z,19
2019-04-27T06:16:39.736Z,19
2019-04-27T06:21:40.438Z,23
2019-04-27T06:26:40.232Z,18
2019-04-27T06:31:39.946Z,21
2019-04-27T06:36:39.742Z,21
2019-04-27T06:41:40.367Z,16
2019-04-27T06:46:40.796Z,20
2019-04-27T06:51:40.341Z,19
2019-04-27T06:56:39.667Z,19
2019-04-27T07:01:39.716Z,18
2019-04-27T07:06:56.400Z,18
2019-04-27T07:11:39.770Z,17
2019-04-27T07:16:39.695Z,17
2019-04-27T07:21:40.362Z,20
2019-04-27T07:26:39.669Z,16
2019-04-27T07:31:40.509Z,17
2019-04-27T07:36:39.690Z,14
2019-04-27T07:41:39.646Z,15
2019-04-27T07:46:39.624Z,19
2019-04-27T07:51:39.653Z,20
2019-04-27T07:56:39.662Z,15
2019-04-27T08:01:39.613Z,16
2019-04-27T08:06:39.635Z,16
2019-04-27T08:11:39.618Z,14
2019-04-27T08:16:39.612Z,15
2019-04-27T08:21:46.761Z,16
2019-04-27T08:26:39.680Z,15
2019-04-27T08:31:39.620Z,14
2019-04-27T08:36:39.597Z,15
2019-04-27T08:41:39.646Z,13
2019-04-27T08:46:39.571Z,16
2019-04-27T08:51:41.792Z,17
2019-04-27T08:56:39.791Z,18
2019-04-27T09:01:39.945Z,18
2019-04-27T09:06:40.864Z,17
2019-04-27T09:11:39.608Z,18
2019-04-27T09:16:39.547Z,17
2019-04-27T09:21:39.681Z,20
2019-04-27T09:26:39.571Z,18
2019-04-27T09:31:39.645Z,17
2019-04-27T09:36:39.533Z,22
2019-04-27T09:41:39.576Z,20
2019-04-27T09:46:39.572Z,19
2019-04-27T11:07:07.371Z,16
2019-04-27T11:12:07.157Z,19
2019-04-27T11:17:06.493Z,20
2019-04-27T11:22:07.712Z,16
2019-04-27T11:27:06.428Z,17
2019-04-27T11:32:06.399Z,15
2019-04-27T11:37:06.376Z,17
2019-04-27T11:42:06.389Z,16
2019-04-27T11:47:06.370Z,15
2019-04-27T11:52:07.794Z,16
2019-04-27T11:57:06.374Z,16
2019-04-27T12:02:06.373Z,21
2019-04-27T12:07:06.711Z,21
2019-04-27T12:12:22.128Z,19
2019-04-27T12:17:06.517Z,23
2019-04-27T12:22:06.404Z,14
2019-04-27T12:27:06.374Z,15
2019-04-27T12:32:06.362Z,11
2019-04-27T12:37:07.473Z,12
2019-04-27T12:42:06.387Z,12
2019-04-27T12:47:06.466Z,14
2019-04-27T12:52:06.322Z,11
2019-04-27T12:57:06.347Z,11
2019-04-27T13:02:06.454Z,12
2019-04-27T13:07:06.298Z,15
2019-04-27T13:12:06.388Z,10
2019-04-27T13:17:06.476Z,14
2019-04-27T13:22:06.376Z,10
2019-04-27T13:27:06.640Z,11
2019-04-27T13:32:06.279Z,12
2019-04-27T13:37:06.294Z,13
2019-04-27T13:42:06.790Z,13
2019-04-27T13:47:08.226Z,12
2019-04-27T13:52:06.329Z,13
2019-04-27T13:57:07.772Z,14
2019-04-27T14:02:06.284Z,13
2019-04-27T14:07:06.271Z,12
2019-04-27T14:12:06.270Z,14
2019-04-27T14:17:10.095Z,17
2019-04-27T14:22:06.305Z,14
2019-04-27T14:27:06.257Z,17
2019-04-27T14:32:06.286Z,13
2019-04-27T14:37:06.225Z,16
2019-04-27T14:42:08.602Z,14
2019-04-27T14:47:08.367Z,16
2019-04-27T14:52:06.269Z,15
2019-04-27T14:57:06.285Z,43
2019-04-27T15:02:06.222Z,20
2019-04-27T15:07:06.236Z,18
2019-04-27T15:12:06.193Z,17
2019-04-27T15:17:07.015Z,21
2019-04-27T15:22:06.181Z,16
2019-04-27T15:27:06.229Z,16
2019-04-27T15:36:21.177Z,17
2019-04-27T15:41:09.064Z,18
2019-04-27T15:46:08.474Z,21
2019-04-27T15:51:21.377Z,15
2019-04-27T15:56:09.077Z,23
2019-04-27T16:06:51.439Z,24
2019-04-27T16:12:13.038Z,20
2019-04-27T16:16:51.369Z,26
2019-04-27T16:21:54.650Z,25
2019-04-27T16:26:56.348Z,19
2019-04-27T16:27:49.208Z,21
2019-04-27T16:32:59.562Z,21
2019-04-27T16:38:00.313Z,26
2019-04-27T16:43:00.794Z,26
2019-04-27T16:48:02.290Z,31
2019-04-27T16:55:01.084Z,29
2019-04-27T16:58:00.346Z,27
2019-04-27T17:03:06.943Z,28
2019-04-27T17:07:59.982Z,27
2019-04-27T17:12:59.848Z,30
2019-04-27T17:17:59.772Z,28
2019-04-27T17:22:59.750Z,27
2019-04-27T17:28:05.383Z,26
2019-04-27T17:52:59.254Z,27
2019-04-27T17:58:06.782Z,27
2019-04-27T18:02:58.158Z,28
2019-04-27T18:07:58.168Z,26
2019-04-27T18:12:58.474Z,27
2019-04-27T18:17:58.610Z,26
2019-04-27T18:22:58.169Z,27
2019-04-27T18:27:58.438Z,33
2019-04-27T18:33:02.432Z,33
2019-04-27T18:38:02.148Z,32
2019-04-27T18:42:57.539Z,32
2019-04-27T18:47:59.536Z,33
2019-04-27T18:52:58.271Z,39
2019-04-27T18:58:02.304Z,33
2019-04-27T19:02:58.681Z,36
2019-04-27T19:07:57.473Z,43
2019-04-27T19:12:58.695Z,32
2019-04-27T19:17:58.381Z,32
2019-04-27T19:22:57.481Z,36
2019-04-27T19:49:51.631Z,31
2019-04-27T19:54:51.587Z,28
2019-04-27T19:59:51.694Z,30
2019-04-27T20:04:51.595Z,32
2019-04-27T20:09:51.587Z,32
2019-04-27T20:14:51.575Z,32
2019-04-27T20:19:51.826Z,33
2019-04-27T20:24:51.628Z,26
2019-04-27T20:29:51.564Z,28
2019-04-27T20:34:51.644Z,28
2019-04-27T20:39:51.761Z,36
2019-04-27T21:00:22.260Z,32
2019-04-27T21:05:22.327Z,25
2019-04-27T21:10:22.260Z,23
2019-04-27T21:15:22.231Z,25
2019-04-27T21:20:22.258Z,23
2019-04-27T21:25:22.258Z,19
2019-04-27T21:30:22.271Z,19
2019-04-27T21:35:22.221Z,19
2019-04-27T21:40:22.207Z,22
